Time;durP1;ratioP1;P1;durP2;ratioP2;P2;SDS_P1;SDS_P2;PMS_P1;PMS_P2;Temp;Humidity;BMP_temperature;BMP_pressure;BME280_temperature;BME280_humidity;BME280_pressure;Samples;Min_cycle;Max_cycle;Signal;HPM_P1;HPM_P2
2023/03/28 00:01:08;;;;;;;;;;;;;;;;;;5034756;28;7155;-70
2023/03/28 00:03:38;;;;;;;;;;;;;;;;;;5034820;28;6959;-70
2023/03/28 00:06:08;;;;;;;;;;;;;;;;;;5034656;28;7157;-70
2023/03/28 00:11:37;;;;;;;;;;;;;;;;;;5034661;28;6929;-70
2023/03/28 00:14:04;;;;;;;;;;;;;;;;;;5034546;28;7112;-70
2023/03/28 00:19:32;;;;;;;;;;;;;;;;;;5034421;28;7033;-70
2023/03/28 00:21:58;;;;;;;;;;;;;;;;;;5034499;28;7024;-71
2023/03/28 00:24:24;;;;;;;;;;;;;;;;;;5035176;28;7143;-71
2023/03/28 00:29:53;;;;;;;;;;;;;;;;;;5034317;28;6678;-67
2023/03/28 00:32:48;;;;;;;;;;;;;;;;;;5034224;28;7179;-70
2023/03/28 00:35:20;;;;;;;;;;;;;;;;;;5034738;28;7113;-70
2023/03/28 00:37:49;;;;;;;;;;;;;;;;;;5038198;28;7226;-71
2023/03/28 00:40:15;;;;;;;;;;;;;;;;;;5038483;28;7152;-71
2023/03/28 00:45:44;;;;;;;;;;;;;;;;;;5038326;28;7019;-71
2023/03/28 00:48:12;;;;;;;;;;;;;;;;;;5037911;28;7462;-71
2023/03/28 00:50:41;;;;;;;;;;;;;;;;;;5038044;28;7019;-71
2023/03/28 00:53:18;;;;;;;;;;;;;;;;;;5038171;28;7057;-71
2023/03/28 00:56:05;;;;;;;;;;;;;;;;;;5038196;28;6914;-71
2023/03/28 00:58:37;;;;;;;;;;;;;;;;;;5037993;28;7022;-70
2023/03/28 01:01:03;;;;;;;;;;;;;;;;;;5040915;28;7142;-70
2023/03/28 01:06:36;;;;;;;;;;;;;;;;;;5057571;28;6941;-70
2023/03/28 01:09:05;;;;;;;;;;;;;;;;;;5057520;28;7249;-70
2023/03/28 01:14:42;;;;;;;;;;;;;;;;;;5037545;28;6682;-70
2023/03/28 01:17:09;;;;;;;;;;;;;;;;;;5037332;28;7139;-70
2023/03/28 01:20:04;;;;;;;;;;;;;;;;;;5037648;28;7193;-70
2023/03/28 01:25:53;;;;;;;;;;;;;;;;;;5037911;28;7008;-70
2023/03/28 01:28:31;;;;;;;;;;;;;;;;;;5037762;28;7184;-65
2023/03/28 01:31:15;;;;;;;;;;;;;;;;;;5037454;28;7127;-70
2023/03/28 01:39:41;;;;;;;;;;;;;;;;;;5037708;28;6929;-70
2023/03/28 01:45:29;;;;;;;;;;;;;;;;;;5036956;28;6968;-70
2023/03/28 01:54:27;;;;;;;;;;;;;;;;;;5036717;28;6674;-70
2023/03/28 02:00:12;;;;;;;;;;;;;;;;;;5036739;28;6913;-70
2023/03/28 02:02:42;;;;;;;;;;;;;;;;;;5036814;28;7222;-70
2023/03/28 02:05:13;;;;;;;;;;;;;;;;;;5036844;28;7399;-70
2023/03/28 02:07:42;;;;;;;;;;;;;;;;;;5036398;28;7072;-70
2023/03/28 02:10:10;;;;;;;;;;;;;;;;;;5036741;28;7052;-70
2023/03/28 02:12:48;;;;;;;;;;;;;;;;;;5036353;28;6982;-70
2023/03/28 02:15:16;;;;;;;;;;;;;;;;;;5036585;28;7056;-70
2023/03/28 02:17:53;;;;;;;;;;;;;;;;;;5036448;28;7026;-70
2023/03/28 02:20:23;;;;;;;;;;;;;;;;;;5036840;28;7092;-70
2023/03/28 02:23:02;;;;;;;;;;;;;;;;;;5036438;28;7484;-70
2023/03/28 02:25:29;;;;;;;;;;;;;;;;;;5036155;28;6959;-70
2023/03/28 02:28:00;;;;;;;;;;;;;;;;;;5036314;28;7331;-70
2023/03/28 02:33:36;;;;;;;;;;;;;;;;;;5036021;28;7054;-70
2023/03/28 02:39:08;;;;;;;;;;;;;;;;;;5036031;28;6924;-70
2023/03/28 02:48:15;;;;;;;;;;;;;;;;;;5036154;28;6681;-70
2023/03/28 02:53:57;;;;;;;;;;;;;;;;;;5036166;28;6784;-70
2023/03/28 02:57:00;;;;;;;;;;;;;;;;;;5035461;28;7197;-70
2023/03/28 02:59:31;;;;;;;;;;;;;;;;;;5035684;28;7001;-70
2023/03/28 03:05:00;;;;;;;;;;;;;;;;;;5035873;28;6985;-70
2023/03/28 03:07:40;;;;;;;;;;;;;;;;;;5038402;28;7188;-70
2023/03/28 03:10:07;;;;;;;;;;;;;;;;;;5055353;28;7363;-70
2023/03/28 03:12:54;;;;;;;;;;;;;;;;;;5055097;28;7196;-70
2023/03/28 03:18:23;;;;;;;;;;;;;;;;;;5055096;28;6924;-70
2023/03/28 03:20:55;;;;;;;;;;;;;;;;;;5055019;28;6965;-70
2023/03/28 03:23:21;;;;;;;;;;;;;;;;;;5055300;28;7049;-70
2023/03/28 03:25:49;;;;;;;;;;;;;;;;;;5055287;28;7121;-70
2023/03/28 03:31:18;;;;;;;;;;;;;;;;;;5054903;28;6979;-70
2023/03/28 03:33:44;;;;;;;;;;;;;;;;;;5055037;28;6960;-70
2023/03/28 03:36:25;;;;;;;;;;;;;;;;;;5053516;28;6984;-70
2023/03/28 03:38:52;;;;;;;;;;;;;;;;;;5055008;28;7231;-70
2023/03/28 03:41:18;;;;;;;;;;;;;;;;;;5055022;28;7135;-70
2023/03/28 03:43:45;;;;;;;;;;;;;;;;;;5054944;28;6992;-70
2023/03/28 03:46:10;;;;;;;;;;;;;;;;;;5054679;28;7160;-70
2023/03/28 03:48:36;;;;;;;;;;;;;;;;;;5054548;28;7409;-70
2023/03/28 03:51:17;;;;;;;;;;;;;;;;;;5054621;28;7460;-70
2023/03/28 03:53:43;;;;;;;;;;;;;;;;;;5054716;28;7686;-70
2023/03/28 03:56:11;;;;;;;;;;;;;;;;;;5054764;28;6954;-70
2023/03/28 03:58:37;;;;;;;;;;;;;;;;;;5054284;28;7293;-70
2023/03/28 04:01:03;;;;;;;;;;;;;;;;;;5054332;28;7248;-70
2023/03/28 04:06:31;;;;;;;;;;;;;;;;;;5034427;28;6704;-70
2023/03/28 04:11:47;;;;;;;;;;;;;;;;;;5034360;28;6762;-70
2023/03/28 04:14:13;;;;;;;;;;;;;;;;;;5034692;28;7116;-70
2023/03/28 04:19:42;;;;;;;;;;;;;;;;;;5043051;28;6701;-71
2023/03/28 04:22:20;;;;;;;;;;;;;;;;;;5053876;28;7420;-71
2023/03/28 04:24:48;;;;;;;;;;;;;;;;;;5034256;28;7191;-70
2023/03/28 04:27:14;;;;;;;;;;;;;;;;;;5037466;28;7363;-71
2023/03/28 04:29:40;;;;;;;;;;;;;;;;;;5050705;28;7216;-71
2023/03/28 04:32:06;;;;;;;;;;;;;;;;;;5054337;28;7346;-71
2023/03/28 04:34:44;;;;;;;;;;;;;;;;;;5054211;28;7320;-71
2023/03/28 04:37:40;;;;;;;;;;;;;;;;;;5054561;28;7091;-71
2023/03/28 04:40:09;;;;;;;;;;;;;;;;;;5054208;28;7143;-71
2023/03/28 04:42:38;;;;;;;;;;;;;;;;;;5054323;28;7373;-71
2023/03/28 04:48:03;;;;;;;;;;;;;;;;;;5054903;28;7092;-70
2023/03/28 04:50:29;;;;;;;;;;;;;;;;;;5054250;28;6941;-71
2023/03/28 04:53:03;;;;;;;;;;;;;;;;;;5054315;28;7083;-70
2023/03/28 04:55:30;;;;;;;;;;;;;;;;;;5053831;28;7063;-71
2023/03/28 04:57:56;;;;;;;;;;;;;;;;;;5053696;28;8174;-71
2023/03/28 05:03:39;;;;;;;;;;;;;;;;;;5053974;28;6678;-70
2023/03/28 05:06:06;;;;;;;;;;;;;;;;;;5053886;28;7050;-70
2023/03/28 05:11:38;;;;;;;;;;;;;;;;;;5053877;28;6710;-70
2023/03/28 05:14:04;;;;;;;;;;;;;;;;;;5053884;28;7178;-70
2023/03/28 05:16:29;;;;;;;;;;;;;;;;;;5053858;28;7055;-70
2023/03/28 05:18:55;;;;;;;;;;;;;;;;;;5054008;28;7105;-70
2023/03/28 05:21:21;;;;;;;;;;;;;;;;;;5053933;28;7715;-70
2023/03/28 05:26:50;;;;;;;;;;;;;;;;;;5057370;28;6669;-70
2023/03/28 05:29:15;;;;;;;;;;;;;;;;;;5057338;28;7360;-70
2023/03/28 05:31:41;;;;;;;;;;;;;;;;;;5056891;28;7330;-70
2023/03/28 05:34:06;;;;;;;;;;;;;;;;;;5057186;28;7093;-70
2023/03/28 05:36:32;;;;;;;;;;;;;;;;;;5046518;28;7127;-70
2023/03/28 05:39:06;;;;;;;;;;;;;;;;;;5037005;28;7110;-70
2023/03/28 05:41:31;;;;;;;;;;;;;;;;;;5037105;28;7028;-70
2023/03/28 05:43:59;;;;;;;;;;;;;;;;;;5036951;28;7862;-70
2023/03/28 05:46:25;;;;;;;;;;;;;;;;;;5036839;28;7146;-70
2023/03/28 05:48:51;;;;;;;;;;;;;;;;;;5036834;28;7440;-70
2023/03/28 05:51:17;;;;;;;;;;;;;;;;;;5037103;28;7321;-70
2023/03/28 05:53:43;;;;;;;;;;;;;;;;;;5036728;28;7454;-70
2023/03/28 05:59:11;;;;;;;;;;;;;;;;;;5036825;28;6748;-70
2023/03/28 06:04:39;;;;;;;;;;;;;;;;;;5036626;28;7033;-70
2023/03/28 06:07:06;;;;;;;;;;;;;;;;;;5036412;28;8171;-70
2023/03/28 06:15:38;;;;;;;;;;;;;;;;;;5056363;28;6676;-70
2023/03/28 06:18:04;;;;;;;;;;;;;;;;;;5057310;28;6987;-70
2023/03/28 06:20:30;;;;;;;;;;;;;;;;;;5056599;28;6918;-70
2023/03/28 06:23:32;;;;;;;;;;;;;;;;;;5056435;28;7375;-70
2023/03/28 06:25:58;;;;;;;;;;;;;;;;;;5056248;28;7154;-70
2023/03/28 06:28:23;;;;;;;;;;;;;;;;;;5056319;28;7457;-70
2023/03/28 06:30:50;;;;;;;;;;;;;;;;;;5056311;28;7114;-70
2023/03/28 06:33:15;;;;;;;;;;;;;;;;;;5055741;28;7172;-70
2023/03/28 06:35:41;;;;;;;;;;;;;;;;;;5055976;28;7432;-70
2023/03/28 06:38:07;;;;;;;;;;;;;;;;;;5055790;28;6977;-70
2023/03/28 06:40:32;;;;;;;;;;;;;;;;;;5056023;28;7099;-70
2023/03/28 06:42:58;;;;;;;;;;;;;;;;;;5054911;28;7152;-71
2023/03/28 06:48:30;;;;;;;;;;;;;;;;;;5055653;28;6932;-71
2023/03/28 06:50:59;;;;;;;;;;;;;;;;;;5055873;28;7381;-71
2023/03/28 06:53:47;;;;;;;;;;;;;;;;;;5055667;28;6928;-71
2023/03/28 06:56:13;;;;;;;;;;;;;;;;;;5055171;28;7009;-71
2023/03/28 06:58:41;;;;;;;;;;;;;;;;;;5037768;28;8919;-71
2023/03/28 07:01:06;;;;;;;;;;;;;;;;;;5055583;28;7205;-71
2023/03/28 07:03:32;;;;;;;;;;;;;;;;;;5055486;28;6829;-70
2023/03/28 07:08:48;;;;;;;;;;;;;;;;;;5055636;28;8001;-70
2023/03/28 07:11:13;;;;;;;;;;;;;;;;;;5055816;28;7172;-70
2023/03/28 07:13:39;;;;;;;;;;;;;;;;;;5055321;28;6928;-70
2023/03/28 07:22:17;;;;;;;;;;;;;;;;;;5055220;28;6833;-69
2023/03/28 07:30:49;;;;;;;;;;;;;;;;;;5052785;28;6796;-69
2023/03/28 07:33:27;;;;;;;;;;;;;;;;;;5054740;28;7032;-69
2023/03/28 07:35:53;;;;;;;;;;;;;;;;;;5055136;28;6926;-69
2023/03/28 07:38:19;;;;;;;;;;;;;;;;;;5054837;28;7446;-70
2023/03/28 07:40:46;;;;;;;;;;;;;;;;;;5054754;28;7266;-70
2023/03/28 07:43:11;;;;;;;;;;;;;;;;;;5055054;28;7036;-68
2023/03/28 07:45:52;;;;;;;;;;;;;;;;;;5054084;28;6915;-69
2023/03/28 07:53:49;;;;;;;;;;;;;;;;;;5034997;28;6703;-67
2023/03/28 07:59:18;;;;;;;;;;;;;;;;;;4995324;28;6786;-67
2023/03/28 08:01:44;;;;;;;;;;;;;;;;;;4995500;28;7038;-67
2023/03/28 08:04:11;;;;;;;;;;;;;;;;;;4995071;28;6815;-67
2023/03/28 08:09:40;;;;;;;;;;;;;;;;;;5009462;28;6695;-66
2023/03/28 08:18:39;;;;;;;;;;;;;;;;;;5014711;28;6909;-66
2023/03/28 08:24:09;;;;;;;;;;;;;;;;;;5014697;28;6682;-67
2023/03/28 08:32:40;;;;;;;;;;;;;;;;;;5014605;28;6980;-67
2023/03/28 08:38:09;;;;;;;;;;;;;;;;;;5014170;28;6697;-67
2023/03/28 08:40:44;;;;;;;;;;;;;;;;;;5013217;28;8755;-67
2023/03/28 08:46:16;;;;;;;;;;;;;;;;;;5014490;28;6691;-67
2023/03/28 08:52:00;;;;;;;;;;;;;;;;;;4994899;28;6902;-67
2023/03/28 08:54:32;;;;;;;;;;;;;;;;;;4994634;28;6963;-67
2023/03/28 08:57:02;;;;;;;;;;;;;;;;;;4996638;28;8182;-66
2023/03/28 08:59:48;;;;;;;;;;;;;;;;;;4998634;28;7141;-66
2023/03/28 09:02:18;;;;;;;;;;;;;;;;;;4998666;28;7046;-67
2023/03/28 09:04:44;;;;;;;;;;;;;;;;;;4998576;28;7105;-67
2023/03/28 09:10:47;;;;;;;;;;;;;;;;;;4998312;28;6935;-66
2023/03/28 09:16:47;;;;;;;;;;;;;;;;;;5056865;23;6932;-64
2023/03/28 09:19:14;;;;;;;;;;;;;;;;;;4998392;28;7052;-66
2023/03/28 09:21:51;;;;;;;;;;;;;;;;;;4998020;28;6953;-67
2023/03/28 09:27:42;;;;;;;;;;;;;;;;;;4940325;28;6933;-67
2023/03/28 09:30:14;;;;;;;;;;;;;;;;;;4997747;28;7215;-67
2023/03/28 09:35:53;;;;;;;;;;;;;;;;;;4998044;28;6691;-67
2023/03/28 09:41:36;;;;;;;;;;;;;;;;;;4998109;28;6978;-67
2023/03/28 09:44:05;;;;;;;;;;;;;;;;;;4997844;28;7061;-67
2023/03/28 09:52:38;;;;;;;;;;;;;;;;;;4978039;28;6930;-67
2023/03/28 09:55:04;;;;;;;;;;;;;;;;;;4976829;28;8738;-67
2023/03/28 10:03:37;;;;;;;;;;;;;;;;;;4997404;28;6926;-69
2023/03/28 10:06:22;;;;;;;;;;;;;;;;;;4997434;28;7176;-69
2023/03/28 10:08:48;;;;;;;;;;;;;;;;;;4996615;28;7376;-69
2023/03/28 10:11:15;;;;;;;;;;;;;;;;;;4979798;28;8383;-69
2023/03/28 10:13:47;;;;;;;;;;;;;;;;;;4997297;28;6892;-69
2023/03/28 10:16:42;;;;;;;;;;;;;;;;;;4996640;28;7288;-69
2023/03/28 10:19:12;;;;;;;;;;;;;;;;;;4977778;28;7147;-69
2023/03/28 10:21:38;;;;;;;;;;;;;;;;;;4977718;28;7174;-69
2023/03/28 10:30:13;;;;;;;;;;;;;;;;;;4977430;28;6676;-69
2023/03/28 10:32:39;;;;;;;;;;;;;;;;;;4977489;28;7158;-69
2023/03/28 10:35:07;;;;;;;;;;;;;;;;;;4976580;28;7140;-69
2023/03/28 10:37:33;;;;;;;;;;;;;;;;;;4977437;28;7540;-69
2023/03/28 10:43:01;;;;;;;;;;;;;;;;;;4977432;28;6706;-69
2023/03/28 10:48:32;;;;;;;;;;;;;;;;;;4977244;28;7114;-69
2023/03/28 10:57:26;;;;;;;;;;;;;;;;;;4972862;28;6979;-69
2023/03/28 11:00:20;;;;;;;;;;;;;;;;;;4975471;28;7773;-69
2023/03/28 11:03:08;;;;;;;;;;;;;;;;;;4965768;28;7299;-69
2023/03/28 11:05:52;;;;;;;;;;;;;;;;;;4989807;28;7384;-65
2023/03/28 11:08:50;;;;;;;;;;;;;;;;;;4939442;28;7065;-64
2023/03/28 11:11:43;;;;;;;;;;;;;;;;;;4965154;28;6939;-65
2023/03/28 11:14:44;;;;;;;;;;;;;;;;;;4953692;28;6813;-66
2023/03/28 11:17:27;;;;;;;;;;;;;;;;;;4969564;28;7025;-66
2023/03/28 11:20:16;;;;;;;;;;;;;;;;;;4998393;28;7028;-66
2023/03/28 11:22:55;;;;;;;;;;;;;;;;;;4977967;28;7137;-66
2023/03/28 11:29:17;;;;;;;;;;;;;;;;;;;;;
2023/03/28 11:35:20;;;;;;;;;;;;;;;;;;4916654;29;6934;-66
2023/03/28 11:37:57;;;;;;;;;;;;;;;;;;4916129;29;7089;-65
2023/03/28 11:40:50;;;;;;;;;;;;;;;;;;4895197;29;6970;-66
2023/03/28 11:47:07;;;;;;;;;;;;;;;;;;4879306;29;6944;-66
2023/03/28 11:53:33;;;;;;;;;;;;;;;;;;4878951;29;6780;-65
2023/03/28 11:59:46;;;;;;;;;;;;;;;;;;4874942;29;6807;-66
2023/03/28 12:02:29;;;;;;;;;;;;;;;;;;4870846;29;6833;-66
2023/03/28 12:07:56;;;;;;;;;;;;;;;;;;4879247;29;7042;-63
2023/03/28 12:10:35;;;;;;;;;;;;;;;;;;4867025;29;7439;-64
2023/03/28 12:28:46;;;;;;;;;;;;;;;;;;4951998;28;7054;-62
2023/03/28 12:31:34;;;;;;;;;;;;;;;;;;4995664;28;7056;-63
2023/03/28 12:34:16;;;;;;;;;;;;;;;;;;4998459;28;6931;-63
2023/03/28 12:37:32;;;;;;;;;;;;;;;;;;4996985;28;7082;-63
2023/03/28 12:40:44;;;;;;;;;;;;;;;;;;4952661;28;7105;-65
2023/03/28 12:46:36;;;;;;;;;;;;;;;;;;4991772;28;7063;-65
2023/03/28 12:49:33;;;;;;;;;;;;;;;;;;5001994;28;7205;-65
2023/03/28 12:52:26;;;;;;;;;;;;;;;;;;4997784;28;7406;-65
2023/03/28 12:58:19;;;;;;;;;;;;;;;;;;4981776;28;7004;-65
2023/03/28 13:01:04;;;;;;;;;;;;;;;;;;4999982;28;6828;-65
2023/03/28 13:03:50;;;;;;;;;;;;;;;;;;4997904;28;7153;-65
2023/03/28 13:12:46;;;;;;;;;;;;;;;;;;5009961;28;6995;-65
2023/03/28 13:18:28;;;;;;;;;;;;;;;;;;5010852;28;6793;-65
2023/03/28 13:20:55;;;;;;;;;;;;;;;;;;4996896;28;7148;-65
2023/03/28 13:23:45;;;;;;;;;;;;;;;;;;4995726;28;7130;-65
2023/03/28 13:26:11;;;;;;;;;;;;;;;;;;4998349;28;6891;-65
2023/03/28 13:28:59;;;;;;;;;;;;;;;;;;4997724;28;6947;-65
2023/03/28 13:31:26;;;;;;;;;;;;;;;;;;4997336;28;7137;-65
2023/03/28 13:34:20;;;;;;;;;;;;;;;;;;4997819;28;7421;-65
2023/03/28 13:37:24;;;;;;;;;;;;;;;;;;4940792;28;6851;-65
2023/03/28 13:40:28;;;;;;;;;;;;;;;;;;4936554;28;7152;-65
2023/03/28 13:43:01;;;;;;;;;;;;;;;;;;4955395;28;7339;-65
2023/03/28 13:45:31;;;;;;;;;;;;;;;;;;4949204;28;7270;-65
2023/03/28 13:48:20;;;;;;;;;;;;;;;;;;4953021;28;7367;-65
2023/03/28 13:51:07;;;;;;;;;;;;;;;;;;4947094;28;6833;-65
2023/03/28 13:53:53;;;;;;;;;;;;;;;;;;4945691;28;6826;-65
2023/03/28 13:56:29;;;;;;;;;;;;;;;;;;4935113;28;7097;-65
2023/03/28 13:59:01;;;;;;;;;;;;;;;;;;4946025;28;7029;-65
2023/03/28 14:07:42;;;;;;;;;;;;;;;;;;4901713;29;7199;-66
2023/03/28 14:13:20;;;;;;;;;;;;;;;;;;4917798;29;6749;-66
2023/03/28 14:15:46;;;;;;;;;;;;;;;;;;4909378;29;6956;-63
2023/03/28 14:18:17;;;;;;;;;;;;;;;;;;4899412;29;6970;-66
2023/03/28 14:21:16;;;;;;;;;;;;;;;;;;4918136;29;7044;-65
2023/03/28 14:23:54;;;;;;;;;;;;;;;;;;4902832;29;7145;-66
2023/03/28 14:26:22;;;;;;;;;;;;;;;;;;4914822;29;7119;-66
2023/03/28 14:28:50;;;;;;;;;;;;;;;;;;4917726;29;7399;-66
2023/03/28 14:31:29;;;;;;;;;;;;;;;;;;4917917;29;7273;-66
2023/03/28 14:33:57;;;;;;;;;;;;;;;;;;4918129;29;7214;-66
2023/03/28 14:36:36;;;;;;;;;;;;;;;;;;4917538;29;7069;-66
2023/03/28 14:39:08;;;;;;;;;;;;;;;;;;4917831;29;7162;-66
2023/03/28 14:50:37;;;;;;;;;;;;;;;;;;4996984;28;6980;-66
2023/03/28 14:53:06;;;;;;;;;;;;;;;;;;4979075;28;7260;-66
2023/03/28 14:55:35;;;;;;;;;;;;;;;;;;4996267;28;7295;-66
2023/03/28 14:58:03;;;;;;;;;;;;;;;;;;4996426;28;7103;-66
2023/03/28 15:00:49;;;;;;;;;;;;;;;;;;4996568;28;7081;-65
2023/03/28 15:03:18;;;;;;;;;;;;;;;;;;4994539;28;7306;-66
2023/03/28 15:08:48;;;;;;;;;;;;;;;;;;4995716;28;6921;-65
2023/03/28 15:11:25;;;;;;;;;;;;;;;;;;4995794;28;7196;-65
2023/03/28 15:16:54;;;;;;;;;;;;;;;;;;5015628;28;7765;-66
2023/03/28 15:19:25;;;;;;;;;;;;;;;;;;5014380;28;7232;-66
2023/03/28 15:31:02;;;;;;;;;;;;;;;;;;4995782;28;6928;-66
2023/03/28 15:33:31;;;;;;;;;;;;;;;;;;4995544;28;7055;-66
2023/03/28 15:36:19;;;;;;;;;;;;;;;;;;4995323;28;7452;-66
2023/03/28 15:38:49;;;;;;;;;;;;;;;;;;4995976;28;7151;-66
2023/03/28 15:41:35;;;;;;;;;;;;;;;;;;4977643;28;6956;-66
2023/03/28 15:44:19;;;;;;;;;;;;;;;;;;4990453;28;7020;-65
2023/03/28 15:46:45;;;;;;;;;;;;;;;;;;4995495;28;6952;-66
2023/03/28 15:49:11;;;;;;;;;;;;;;;;;;4996375;28;7206;-66
2023/03/28 15:54:44;;;;;;;;;;;;;;;;;;4975704;28;6981;-66
2023/03/28 15:57:11;;;;;;;;;;;;;;;;;;4994213;28;6983;-66
2023/03/28 15:59:45;;;;;;;;;;;;;;;;;;4995284;28;6948;-66
2023/03/28 16:11:30;;;;;;;;;;;;;;;;;;4979920;28;6688;-66
2023/03/28 16:13:56;;;;;;;;;;;;;;;;;;4979357;28;7083;-65
2023/03/28 16:16:42;;;;;;;;;;;;;;;;;;4975452;28;7225;-66
2023/03/28 16:19:11;;;;;;;;;;;;;;;;;;4975816;28;7447;-65
2023/03/28 16:21:37;;;;;;;;;;;;;;;;;;4975876;28;7236;-65
2023/03/28 16:24:03;;;;;;;;;;;;;;;;;;4975911;28;7045;-66
2023/03/28 16:26:29;;;;;;;;;;;;;;;;;;4975720;28;7127;-65
2023/03/28 16:29:13;;;;;;;;;;;;;;;;;;4975645;28;6967;-65
2023/03/28 16:31:39;;;;;;;;;;;;;;;;;;4975710;28;6867;-66
2023/03/28 16:34:05;;;;;;;;;;;;;;;;;;4975431;28;6962;-65
2023/03/28 16:36:31;;;;;;;;;;;;;;;;;;4981623;28;7098;-65
2023/03/28 16:41:59;;;;;;;;;;;;;;;;;;4994864;28;6688;-65
2023/03/28 16:44:25;;;;;;;;;;;;;;;;;;4995050;28;7133;-65
2023/03/28 16:46:51;;;;;;;;;;;;;;;;;;4994617;28;6950;-66
2023/03/28 16:52:20;;;;;;;;;;;;;;;;;;4994873;28;7376;-65
2023/03/28 16:54:49;;;;;;;;;;;;;;;;;;4994514;28;7180;-66
2023/03/28 16:57:14;;;;;;;;;;;;;;;;;;4994833;28;7151;-66
2023/03/28 17:02:44;;;;;;;;;;;;;;;;;;4994783;28;6927;-66
2023/03/28 17:05:20;;;;;;;;;;;;;;;;;;4994642;28;7203;-66
2023/03/28 17:07:45;;;;;;;;;;;;;;;;;;4994496;28;7182;-66
2023/03/28 17:10:11;;;;;;;;;;;;;;;;;;4991094;28;7344;-66
2023/03/28 17:12:37;;;;;;;;;;;;;;;;;;4994552;28;7189;-66
2023/03/28 17:15:11;;;;;;;;;;;;;;;;;;4994630;28;7144;-66
2023/03/28 17:17:36;;;;;;;;;;;;;;;;;;4995917;28;7147;-66
2023/03/28 17:20:02;;;;;;;;;;;;;;;;;;4998327;28;7429;-66
2023/03/28 17:22:46;;;;;;;;;;;;;;;;;;4982169;28;7228;-63
2023/03/28 17:25:12;;;;;;;;;;;;;;;;;;4998265;28;7408;-63
2023/03/28 17:27:38;;;;;;;;;;;;;;;;;;4998100;28;7096;-63
2023/03/28 17:33:06;;;;;;;;;;;;;;;;;;4997921;28;7029;-63
2023/03/28 17:35:33;;;;;;;;;;;;;;;;;;4997782;28;7911;-63
2023/03/28 17:37:58;;;;;;;;;;;;;;;;;;4997880;28;7268;-63
2023/03/28 17:43:26;;;;;;;;;;;;;;;;;;4997754;28;6680;-63
2023/03/28 17:45:53;;;;;;;;;;;;;;;;;;4997929;28;6940;-63
2023/03/28 17:48:19;;;;;;;;;;;;;;;;;;4997561;28;7249;-63
2023/03/28 17:53:47;;;;;;;;;;;;;;;;;;4978122;28;6982;-63
2023/03/28 17:56:33;;;;;;;;;;;;;;;;;;4979064;28;6957;-63
2023/03/28 17:58:58;;;;;;;;;;;;;;;;;;4978780;28;7397;-63
2023/03/28 18:01:24;;;;;;;;;;;;;;;;;;4977833;28;7202;-63
2023/03/28 18:03:50;;;;;;;;;;;;;;;;;;4978399;28;6926;-63
2023/03/28 18:09:03;;;;;;;;;;;;;;;;;;4978315;28;6962;-63
2023/03/28 18:11:28;;;;;;;;;;;;;;;;;;4989019;28;6938;-63
2023/03/28 18:13:57;;;;;;;;;;;;;;;;;;4998475;28;7358;-63
2023/03/28 18:16:24;;;;;;;;;;;;;;;;;;4996970;28;7183;-63
2023/03/28 18:18:50;;;;;;;;;;;;;;;;;;4996863;28;7048;-63
2023/03/28 18:21:16;;;;;;;;;;;;;;;;;;4997245;28;7158;-63
2023/03/28 18:23:44;;;;;;;;;;;;;;;;;;4997486;28;7373;-63
2023/03/28 18:26:10;;;;;;;;;;;;;;;;;;4977803;28;6979;-63
2023/03/28 18:31:56;;;;;;;;;;;;;;;;;;4977400;28;6697;-63
2023/03/28 18:34:22;;;;;;;;;;;;;;;;;;4977120;28;6913;-63
2023/03/28 18:40:23;;;;;;;;;;;;;;;;;;4990833;28;6933;-63
2023/03/28 18:42:49;;;;;;;;;;;;;;;;;;4996579;28;8784;-63
2023/03/28 18:45:30;;;;;;;;;;;;;;;;;;4996782;28;7377;-63
2023/03/28 18:47:56;;;;;;;;;;;;;;;;;;4996776;28;7104;-63
2023/03/28 18:50:46;;;;;;;;;;;;;;;;;;4991128;28;7386;-63
2023/03/28 18:53:11;;;;;;;;;;;;;;;;;;4987304;28;6903;-63
2023/03/28 18:55:37;;;;;;;;;;;;;;;;;;4994543;28;7164;-63
2023/03/28 18:58:10;;;;;;;;;;;;;;;;;;4995908;28;7217;-63
2023/03/28 19:00:37;;;;;;;;;;;;;;;;;;4977182;28;6967;-63
2023/03/28 19:06:17;;;;;;;;;;;;;;;;;;4976768;28;6683;-63
2023/03/28 19:08:43;;;;;;;;;;;;;;;;;;4977069;28;7376;-63
2023/03/28 19:11:27;;;;;;;;;;;;;;;;;;4976872;28;7283;-63
2023/03/28 19:13:53;;;;;;;;;;;;;;;;;;4976751;28;7050;-63
2023/03/28 19:25:24;;;;;;;;;;;;;;;;;;4976476;28;7416;-63
2023/03/28 19:27:50;;;;;;;;;;;;;;;;;;4976546;28;7038;-63
2023/03/28 19:30:17;;;;;;;;;;;;;;;;;;4976583;28;7170;-63
2023/03/28 19:33:19;;;;;;;;;;;;;;;;;;4959040;28;8374;-63
2023/03/28 19:35:45;;;;;;;;;;;;;;;;;;4976438;28;7213;-63
2023/03/28 19:38:11;;;;;;;;;;;;;;;;;;4976492;28;7357;-63
2023/03/28 19:40:38;;;;;;;;;;;;;;;;;;4976508;28;7264;-63
2023/03/28 19:43:04;;;;;;;;;;;;;;;;;;4976330;28;7203;-63
2023/03/28 19:45:50;;;;;;;;;;;;;;;;;;4976288;28;6936;-63
2023/03/28 19:48:15;;;;;;;;;;;;;;;;;;4976165;28;7177;-63
2023/03/28 19:54:08;;;;;;;;;;;;;;;;;;4976336;28;6760;-63
2023/03/28 19:56:34;;;;;;;;;;;;;;;;;;4975979;28;7157;-63
2023/03/28 19:59:14;;;;;;;;;;;;;;;;;;4975895;28;6912;-63
2023/03/28 20:01:39;;;;;;;;;;;;;;;;;;4975711;28;7415;-63
2023/03/28 20:07:12;;;;;;;;;;;;;;;;;;4975638;28;6698;-63
2023/03/28 20:09:40;;;;;;;;;;;;;;;;;;4976047;28;7117;-63
2023/03/28 20:14:59;;;;;;;;;;;;;;;;;;4976486;28;6947;-63
2023/03/28 20:20:28;;;;;;;;;;;;;;;;;;4974796;28;7018;-63
2023/03/28 20:23:04;;;;;;;;;;;;;;;;;;4975827;28;7457;-63
2023/03/28 20:25:32;;;;;;;;;;;;;;;;;;4975883;28;7154;-63
2023/03/28 20:27:59;;;;;;;;;;;;;;;;;;4975523;28;7171;-63
2023/03/28 20:30:39;;;;;;;;;;;;;;;;;;4975579;28;7434;-63
2023/03/28 20:33:05;;;;;;;;;;;;;;;;;;4975727;28;7239;-63
2023/03/28 20:35:30;;;;;;;;;;;;;;;;;;4975680;28;7531;-63
2023/03/28 20:43:51;;;;;;;;;;;;;;;;;;4976019;28;6770;-63
2023/03/28 20:46:18;;;;;;;;;;;;;;;;;;4975673;28;7386;-63
2023/03/28 20:48:51;;;;;;;;;;;;;;;;;;4975902;28;7106;-63
2023/03/28 20:51:17;;;;;;;;;;;;;;;;;;4976246;28;7065;-63
2023/03/28 20:53:46;;;;;;;;;;;;;;;;;;4979518;28;6835;-63
2023/03/28 20:56:13;;;;;;;;;;;;;;;;;;4979498;28;6921;-63
2023/03/28 20:58:39;;;;;;;;;;;;;;;;;;4979042;28;8140;-63
2023/03/28 21:01:16;;;;;;;;;;;;;;;;;;4962120;28;7079;-63
2023/03/28 21:03:52;;;;;;;;;;;;;;;;;;4979297;28;6845;-63
2023/03/28 21:06:24;;;;;;;;;;;;;;;;;;4975796;28;7163;-63
2023/03/28 21:11:53;;;;;;;;;;;;;;;;;;4978866;28;6915;-63
2023/03/28 21:17:13;;;;;;;;;;;;;;;;;;4978939;28;6951;-63
2023/03/28 21:19:39;;;;;;;;;;;;;;;;;;4978750;28;7349;-63
2023/03/28 21:25:28;;;;;;;;;;;;;;;;;;4978700;28;6959;-63
2023/03/28 21:27:54;;;;;;;;;;;;;;;;;;4978778;28;7179;-64
2023/03/28 21:30:39;;;;;;;;;;;;;;;;;;4978401;28;7177;-63
2023/03/28 21:33:05;;;;;;;;;;;;;;;;;;4978395;28;7357;-63
2023/03/28 21:35:31;;;;;;;;;;;;;;;;;;4978693;28;7153;-63
2023/03/28 21:37:57;;;;;;;;;;;;;;;;;;4978883;28;7163;-64
2023/03/28 21:43:40;;;;;;;;;;;;;;;;;;4978317;28;6729;-63
2023/03/28 21:46:06;;;;;;;;;;;;;;;;;;4978509;28;7405;-63
2023/03/28 21:48:32;;;;;;;;;;;;;;;;;;4978918;28;7289;-63
2023/03/28 21:50:59;;;;;;;;;;;;;;;;;;4979475;28;7122;-63
2023/03/28 22:02:33;;;;;;;;;;;;;;;;;;4977886;28;6686;-63
2023/03/28 22:04:58;;;;;;;;;;;;;;;;;;4960428;28;8680;-63
2023/03/28 22:07:36;;;;;;;;;;;;;;;;;;4977897;28;7170;-63
2023/03/28 22:10:03;;;;;;;;;;;;;;;;;;4978140;28;7022;-63
2023/03/28 22:15:40;;;;;;;;;;;;;;;;;;4977750;28;6668;-63
2023/03/28 22:18:07;;;;;;;;;;;;;;;;;;4977847;28;6992;-63
2023/03/28 22:20:35;;;;;;;;;;;;;;;;;;4977271;28;7430;-63
2023/03/28 22:23:16;;;;;;;;;;;;;;;;;;4978954;28;7178;-63
2023/03/28 22:25:42;;;;;;;;;;;;;;;;;;4978385;28;6939;-63
2023/03/28 22:28:25;;;;;;;;;;;;;;;;;;4977659;28;7199;-63
2023/03/28 22:30:55;;;;;;;;;;;;;;;;;;4978299;28;7198;-63
2023/03/28 22:33:22;;;;;;;;;;;;;;;;;;4977369;28;7018;-63
2023/03/28 22:38:53;;;;;;;;;;;;;;;;;;4977332;28;6932;-63
2023/03/28 22:41:20;;;;;;;;;;;;;;;;;;4977476;28;6934;-63
2023/03/28 22:43:45;;;;;;;;;;;;;;;;;;4977347;28;7390;-63
2023/03/28 22:49:21;;;;;;;;;;;;;;;;;;4977121;28;6750;-62
2023/03/28 22:52:00;;;;;;;;;;;;;;;;;;4978188;28;7297;-63
2023/03/28 22:54:29;;;;;;;;;;;;;;;;;;4977270;28;7042;-63
2023/03/28 22:56:55;;;;;;;;;;;;;;;;;;4977033;28;7346;-62
2023/03/28 23:02:24;;;;;;;;;;;;;;;;;;4976942;28;6683;-62
2023/03/28 23:04:50;;;;;;;;;;;;;;;;;;4977074;28;7118;-62
2023/03/28 23:07:16;;;;;;;;;;;;;;;;;;4976888;28;7362;-62
2023/03/28 23:09:51;;;;;;;;;;;;;;;;;;4976917;28;7105;-62
2023/03/28 23:12:17;;;;;;;;;;;;;;;;;;4977419;28;7147;-62
2023/03/28 23:14:44;;;;;;;;;;;;;;;;;;4976684;28;6935;-62
2023/03/28 23:17:20;;;;;;;;;;;;;;;;;;4977145;28;7237;-62
2023/03/28 23:19:47;;;;;;;;;;;;;;;;;;4976586;28;7163;-62
2023/03/28 23:22:13;;;;;;;;;;;;;;;;;;4976760;28;6968;-62
2023/03/28 23:24:40;;;;;;;;;;;;;;;;;;4959418;28;9006;-63
2023/03/28 23:27:07;;;;;;;;;;;;;;;;;;4976551;28;6946;-63
2023/03/28 23:30:06;;;;;;;;;;;;;;;;;;4976594;28;7211;-63
2023/03/28 23:32:32;;;;;;;;;;;;;;;;;;4976571;28;7029;-62
2023/03/28 23:34:57;;;;;;;;;;;;;;;;;;4976451;28;7169;-62
2023/03/28 23:43:36;;;;;;;;;;;;;;;;;;4976177;28;6675;-62
2023/03/28 23:46:03;;;;;;;;;;;;;;;;;;4976314;28;7190;-62
2023/03/28 23:48:30;;;;;;;;;;;;;;;;;;4975948;28;7045;-62
2023/03/28 23:53:58;;;;;;;;;;;;;;;;;;4976059;28;6683;-62
2023/03/28 23:56:52;;;;;;;;;;;;;;;;;;4976893;28;7079;-62
2023/03/28 23:59:18;;;;;;;;;;;;;;;;;;4976192;28;7208;-62
